createdAt,value
2022-08-23T00:01:32.170Z,2.20
2022-08-23T00:04:02.102Z,3.23
2022-08-23T00:06:30.850Z,5.57
2022-08-23T00:08:59.034Z,4.70
2022-08-23T00:11:37.005Z,5.00
2022-08-23T00:14:08.573Z,2.10
2022-08-23T00:16:37.038Z,2.67
2022-08-23T00:19:07.398Z,2.57
2022-08-23T00:21:36.475Z,4.00
2022-08-23T00:24:06.945Z,2.97
2022-08-23T00:26:53.650Z,4.40
2022-08-23T00:29:22.402Z,2.90
2022-08-23T00:31:58.966Z,3.20
2022-08-23T00:34:30.745Z,3.00
2022-08-23T00:36:58.801Z,2.70
2022-08-23T00:39:26.842Z,3.23
2022-08-23T00:42:00.114Z,4.03
2022-08-23T00:44:51.050Z,3.73
2022-08-23T00:47:36.966Z,4.73
2022-08-23T00:50:23.483Z,2.47
2022-08-23T00:52:59.549Z,3.50
2022-08-23T00:55:28.702Z,2.00
2022-08-23T00:57:59.082Z,2.87
2022-08-23T01:00:28.070Z,4.17
2022-08-23T01:02:57.121Z,3.03
2022-08-23T01:05:37.663Z,2.20
2022-08-23T01:08:05.737Z,3.20
2022-08-23T01:10:42.401Z,2.67
2022-08-23T01:13:16.137Z,4.43
2022-08-23T01:15:48.221Z,3.40
2022-08-23T01:18:20.205Z,2.87
2022-08-23T01:20:54.561Z,5.23
2022-08-23T01:23:30.773Z,3.13
2022-08-23T01:25:59.441Z,2.43
2022-08-23T01:28:27.572Z,3.50
2022-08-23T01:30:55.709Z,5.17
2022-08-23T01:33:23.773Z,4.27
2022-08-23T01:35:55.227Z,5.77
2022-08-23T01:38:23.577Z,3.47
2022-08-23T01:40:53.409Z,3.60
2022-08-23T01:43:22.417Z,3.07
2022-08-23T01:45:52.181Z,3.70
2022-08-23T01:48:20.989Z,2.83
2022-08-23T01:50:49.197Z,3.73
2022-08-23T01:53:17.500Z,3.10
2022-08-23T01:55:45.716Z,3.20
2022-08-23T01:58:15.241Z,3.27
2022-08-23T02:00:44.484Z,3.03
2022-08-23T02:03:13.546Z,5.20
2022-08-23T02:05:43.115Z,5.73
2022-08-23T02:08:29.101Z,2.50
2022-08-23T02:10:57.225Z,3.73
2022-08-23T02:13:27.096Z,2.90
2022-08-23T02:15:55.163Z,5.03
2022-08-23T02:18:24.162Z,4.20
2022-08-23T02:20:54.339Z,2.90
2022-08-23T02:23:23.530Z,3.23
2022-08-23T02:25:52.500Z,3.10
2022-08-23T02:28:20.840Z,2.70
2022-08-23T02:30:50.904Z,3.87
2022-08-23T02:33:20.984Z,4.97
2022-08-23T02:35:49.048Z,3.60
2022-08-23T02:38:18.156Z,4.70
2022-08-23T02:40:46.260Z,2.83
2022-08-23T02:43:14.232Z,4.17
2022-08-23T02:45:42.720Z,2.87
2022-08-23T02:48:12.112Z,5.13
2022-08-23T02:50:40.149Z,3.93
2022-08-23T02:53:08.494Z,4.27
2022-08-23T02:55:36.528Z,3.60
2022-08-23T02:58:05.490Z,3.10
2022-08-23T03:00:33.878Z,3.50
2022-08-23T03:03:01.825Z,2.90
2022-08-23T03:05:31.396Z,5.80
2022-08-23T03:07:59.821Z,3.73
2022-08-23T03:10:28.232Z,3.87
2022-08-23T03:12:56.551Z,3.33
2022-08-23T03:15:24.701Z,4.27
2022-08-23T03:17:52.687Z,4.47
2022-08-23T03:20:21.080Z,6.90
2022-08-23T03:22:54.725Z,3.17
2022-08-23T03:25:23.383Z,5.40
2022-08-23T03:27:51.452Z,3.03
2022-08-23T03:30:20.162Z,5.03
2022-08-23T03:32:48.881Z,3.70
2022-08-23T03:35:17.587Z,2.93
2022-08-23T03:37:45.632Z,3.67
2022-08-23T03:40:15.248Z,4.17
2022-08-23T03:42:43.267Z,3.60
2022-08-23T03:45:11.959Z,2.50
2022-08-23T03:47:40.099Z,2.77
2022-08-23T03:50:08.915Z,2.93
2022-08-23T03:52:36.934Z,2.70
2022-08-23T03:55:05.334Z,4.73
2022-08-23T03:57:35.028Z,4.20
2022-08-23T04:00:03.114Z,3.03
2022-08-23T04:02:31.202Z,2.80
2022-08-23T04:04:59.441Z,2.80
2022-08-23T04:07:27.586Z,4.33
2022-08-23T04:09:55.685Z,4.10
2022-08-23T04:12:23.874Z,4.07
2022-08-23T04:14:53.731Z,3.80
2022-08-23T04:17:21.785Z,2.50
2022-08-23T04:19:50.578Z,5.03
2022-08-23T04:22:20.309Z,4.90
2022-08-23T04:24:49.145Z,5.00
2022-08-23T04:27:17.926Z,4.93
2022-08-23T04:29:46.169Z,4.83
2022-08-23T04:32:25.977Z,4.13
2022-08-23T04:34:56.397Z,4.63
2022-08-23T04:37:24.541Z,4.23
2022-08-23T04:40:10.016Z,5.57
2022-08-23T04:42:38.131Z,4.13
2022-08-23T04:45:06.918Z,3.33
2022-08-23T04:47:39.225Z,3.17
2022-08-23T04:50:08.269Z,3.50
2022-08-23T04:52:36.249Z,4.70
2022-08-23T04:55:04.649Z,3.57
2022-08-23T04:57:32.633Z,5.20
2022-08-23T05:00:00.640Z,5.17
2022-08-23T05:02:28.757Z,6.63
2022-08-23T05:04:58.156Z,5.23
2022-08-23T05:07:41.897Z,4.53
2022-08-23T05:10:17.782Z,4.97
2022-08-23T05:12:45.952Z,5.20
2022-08-23T05:15:14.668Z,5.10
2022-08-23T05:17:42.713Z,3.60
2022-08-23T05:20:12.661Z,9.20
2022-08-23T05:22:42.536Z,4.20
2022-08-23T05:25:11.121Z,4.07
2022-08-23T05:27:39.846Z,6.97
2022-08-23T05:30:09.053Z,6.87
2022-08-23T05:32:43.720Z,7.03
2022-08-23T05:35:13.106Z,4.83
2022-08-23T05:37:41.289Z,5.00
2022-08-23T05:40:11.041Z,5.87
2022-08-23T05:42:39.372Z,5.10
2022-08-23T05:45:09.623Z,5.07
2022-08-23T05:47:37.607Z,6.73
2022-08-23T05:50:06.140Z,10.03
2022-08-23T05:52:35.539Z,5.47
2022-08-23T05:55:03.627Z,7.47
2022-08-23T05:57:31.771Z,6.63
2022-08-23T05:59:59.949Z,7.30
2022-08-23T06:02:28.041Z,6.97
2022-08-23T06:04:57.546Z,7.97
2022-08-23T06:07:25.679Z,5.53
2022-08-23T06:09:55.476Z,7.17
2022-08-23T06:12:23.767Z,6.37
2022-08-23T06:14:51.852Z,7.28
2022-08-23T06:17:20.771Z,7.60
2022-08-23T06:19:48.783Z,7.07
2022-08-23T06:22:16.955Z,6.07
2022-08-23T06:24:45.054Z,7.43
2022-08-23T06:27:15.222Z,8.63
2022-08-23T06:29:43.678Z,8.47
2022-08-23T06:32:11.686Z,12.52
2022-08-23T06:34:40.015Z,7.87
2022-08-23T06:37:11.862Z,11.83
2022-08-23T06:39:40.255Z,8.18
2022-08-23T06:42:34.873Z,8.25
2022-08-23T06:45:00.758Z,9.15
2022-08-23T06:47:28.870Z,10.23
2022-08-23T06:49:58.396Z,7.88
2022-08-23T06:52:27.296Z,7.93
2022-08-23T06:54:55.518Z,12.45
2022-08-23T06:57:25.863Z,11.73
2022-08-23T06:59:53.826Z,8.25
2022-08-23T07:02:23.308Z,7.93
2022-08-23T07:04:54.126Z,12.95
2022-08-23T07:07:22.377Z,10.98
2022-08-23T07:09:50.450Z,8.95
2022-08-23T07:12:19.883Z,8.00
2022-08-23T07:14:48.066Z,13.70
2022-08-23T07:17:16.847Z,10.15
2022-08-23T07:19:46.213Z,9.75
2022-08-23T07:22:15.717Z,11.75
2022-08-23T07:24:44.063Z,8.35
2022-08-23T07:27:12.761Z,8.35
2022-08-23T07:29:40.917Z,8.80
2022-08-23T07:32:09.810Z,8.77
2022-08-23T07:34:38.013Z,10.35
2022-08-23T07:37:15.250Z,8.90
2022-08-23T07:39:44.051Z,7.95
2022-08-23T07:42:23.541Z,8.18
2022-08-23T07:44:53.111Z,10.25
2022-08-23T07:47:21.786Z,8.55
2022-08-23T07:49:49.950Z,8.15
2022-08-23T07:52:19.296Z,8.02
2022-08-23T07:54:48.296Z,11.70
2022-08-23T07:57:17.625Z,8.90
2022-08-23T07:59:45.972Z,9.93
2022-08-23T08:02:14.086Z,10.00
2022-08-23T08:04:42.225Z,9.10
2022-08-23T08:07:19.303Z,11.68
2022-08-23T08:09:50.145Z,9.00
2022-08-23T08:12:18.316Z,8.48
2022-08-23T08:14:48.240Z,12.85
2022-08-23T08:17:17.160Z,9.88
2022-08-23T08:19:45.248Z,15.00
2022-08-23T08:22:13.561Z,11.45
2022-08-23T08:24:41.848Z,12.80
2022-08-23T08:27:11.276Z,14.90
2022-08-23T08:29:39.299Z,13.68
2022-08-23T08:32:08.941Z,10.50
2022-08-23T08:34:42.347Z,11.20
2022-08-23T08:37:10.492Z,15.45
2022-08-23T08:39:45.459Z,12.18
2022-08-23T08:42:34.572Z,14.68
2022-08-23T08:45:06.119Z,16.00
2022-08-23T08:47:41.711Z,13.43
2022-08-23T08:50:17.684Z,13.95
2022-08-23T08:52:50.520Z,11.48
2022-08-23T08:55:23.387Z,13.20
2022-08-23T08:57:54.942Z,12.23
2022-08-23T09:00:26.351Z,11.05
2022-08-23T09:02:55.514Z,16.92
2022-08-23T09:05:26.920Z,18.05
2022-08-23T09:08:09.892Z,13.30
2022-08-23T09:10:58.162Z,12.85
2022-08-23T09:13:55.855Z,11.85
2022-08-23T09:16:39.460Z,14.15
2022-08-23T09:19:08.503Z,16.02
2022-08-23T09:21:45.091Z,11.10
2022-08-23T09:24:14.488Z,11.15
2022-08-23T09:26:43.809Z,14.18
2022-08-23T09:29:21.907Z,17.35
2022-08-23T09:31:52.976Z,20.05
2022-08-23T09:34:38.959Z,14.38
2022-08-23T09:37:12.419Z,13.02
2022-08-23T09:39:42.572Z,13.85
2022-08-23T09:42:28.619Z,15.20
2022-08-23T09:44:58.214Z,12.25
2022-08-23T09:47:34.171Z,11.63
2022-08-23T09:50:18.067Z,9.10
2022-08-23T09:52:48.996Z,9.95
2022-08-23T09:55:29.847Z,11.70
2022-08-23T09:57:58.175Z,9.05
2022-08-23T10:00:32.500Z,7.32
2022-08-23T10:03:23.414Z,9.80
2022-08-23T10:05:53.340Z,9.35
2022-08-23T10:08:27.330Z,9.13
2022-08-23T10:11:00.226Z,7.07
2022-08-23T10:13:28.734Z,9.13
2022-08-23T10:16:09.542Z,9.82
2022-08-23T10:18:52.250Z,7.07
2022-08-23T10:21:25.319Z,7.95
2022-08-23T10:24:09.982Z,10.40
2022-08-23T10:26:55.976Z,8.82
2022-08-23T10:29:37.746Z,9.75
2022-08-23T10:32:17.490Z,6.00
2022-08-23T10:35:02.212Z,12.43
2022-08-23T10:37:43.696Z,7.95
2022-08-23T10:40:20.066Z,7.35
2022-08-23T10:42:58.704Z,11.52
2022-08-23T10:45:29.839Z,6.05
2022-08-23T10:48:16.243Z,8.55
2022-08-23T10:50:55.863Z,11.38
2022-08-23T10:53:29.692Z,12.48
2022-08-23T10:56:05.909Z,11.95
2022-08-23T10:58:41.117Z,4.72
2022-08-23T11:01:10.548Z,8.23
2022-08-23T11:03:46.110Z,10.25
2022-08-23T11:06:46.621Z,12.18
2022-08-23T11:09:51.971Z,11.52
2022-08-23T11:12:25.026Z,7.78
2022-08-23T11:15:12.345Z,6.68
2022-08-23T11:17:56.288Z,10.95
2022-08-23T11:20:58.009Z,7.47
2022-08-23T11:23:53.826Z,6.63
2022-08-23T11:27:07.615Z,8.93
2022-08-23T11:29:43.548Z,9.93
2022-08-23T11:32:30.109Z,6.97
2022-08-23T11:35:05.817Z,7.65
2022-08-23T11:37:50.057Z,6.82
2022-08-23T11:40:55.859Z,6.55
2022-08-23T11:43:31.620Z,7.28
2022-08-23T11:46:37.315Z,5.13
2022-08-23T11:49:33.480Z,8.90
2022-08-23T11:52:10.916Z,6.95
2022-08-23T11:54:57.119Z,6.75
2022-08-23T11:57:52.637Z,6.32
2022-08-23T12:00:28.651Z,6.55
2022-08-23T12:03:04.104Z,8.95
2022-08-23T12:05:58.848Z,8.10
2022-08-23T12:08:47.736Z,5.68
2022-08-23T12:11:17.368Z,8.13
2022-08-23T12:13:56.886Z,7.38
2022-08-23T12:16:36.309Z,9.57
2022-08-23T12:19:13.535Z,8.93
2022-08-23T12:21:46.988Z,7.85
2022-08-23T12:24:25.216Z,12.55
2022-08-23T12:27:12.784Z,7.20
2022-08-23T12:29:58.845Z,9.90
2022-08-23T12:32:37.705Z,8.82
2022-08-23T12:35:28.665Z,9.30
2022-08-23T12:38:04.015Z,7.18
2022-08-23T12:40:36.153Z,10.23
2022-08-23T12:43:11.829Z,8.10
2022-08-23T12:45:50.685Z,13.13
2022-08-23T12:48:21.935Z,8.65
2022-08-23T12:50:55.368Z,7.28
2022-08-23T12:53:28.768Z,10.10
2022-08-23T12:56:02.616Z,10.88
2022-08-23T12:58:33.829Z,10.98
2022-08-23T13:01:06.412Z,10.15
2022-08-23T13:03:38.748Z,9.25
2022-08-23T13:06:10.707Z,9.68
2022-08-23T13:08:42.786Z,7.07
2022-08-23T13:11:14.045Z,10.80
2022-08-23T13:13:44.011Z,9.82
2022-08-23T13:16:27.978Z,5.95
2022-08-23T13:18:57.427Z,10.95
2022-08-23T13:21:31.869Z,10.95
2022-08-23T13:24:38.549Z,10.68
2022-08-23T13:27:22.857Z,11.02
2022-08-23T13:29:53.651Z,10.77
2022-08-23T13:32:36.579Z,10.27
2022-08-23T13:35:32.340Z,11.93
2022-08-23T13:38:11.362Z,9.52
2022-08-23T13:40:46.230Z,10.23
2022-08-23T13:43:20.991Z,8.15
2022-08-23T13:45:51.953Z,12.48
2022-08-23T13:48:24.776Z,8.80
2022-08-23T13:50:53.398Z,13.73
2022-08-23T13:53:22.357Z,9.93
2022-08-23T13:55:53.714Z,10.18
2022-08-23T13:58:28.812Z,6.18
2022-08-23T14:00:58.829Z,10.20
2022-08-23T14:03:29.578Z,9.25
2022-08-23T14:05:57.566Z,9.90
2022-08-23T14:08:25.754Z,8.55
2022-08-23T14:10:53.926Z,7.85
2022-08-23T14:13:25.363Z,10.82
2022-08-23T14:15:56.576Z,12.70
2022-08-23T14:18:28.633Z,8.00
2022-08-23T14:20:57.111Z,8.95
2022-08-23T14:23:25.267Z,13.30
2022-08-23T14:25:56.629Z,10.98
2022-08-23T14:28:31.290Z,13.45
2022-08-23T14:30:59.508Z,12.32
2022-08-23T14:33:28.945Z,8.18
2022-08-23T14:35:57.309Z,8.50
2022-08-23T14:38:25.639Z,7.70
2022-08-23T14:40:59.072Z,9.98
2022-08-23T14:43:28.422Z,9.85
2022-08-23T14:45:57.351Z,9.75
2022-08-23T14:48:25.878Z,8.73
2022-08-23T14:50:56.237Z,9.95
2022-08-23T14:53:26.669Z,7.05
2022-08-23T14:56:19.976Z,8.82
2022-08-23T14:58:42.982Z,10.98
2022-08-23T15:01:12.563Z,10.43
2022-08-23T15:03:41.845Z,13.40
2022-08-23T15:06:11.981Z,10.23
2022-08-23T15:08:40.753Z,12.88
2022-08-23T15:14:00.373Z,9.48
2022-08-23T15:16:29.617Z,10.55
2022-08-23T15:18:59.806Z,11.55
2022-08-23T15:21:29.345Z,9.35
2022-08-23T15:23:57.357Z,11.43
2022-08-23T15:26:27.312Z,11.68
2022-08-23T15:28:55.585Z,9.05
2022-08-23T15:31:23.977Z,9.80
2022-08-23T15:33:52.085Z,12.23
2022-08-23T15:36:20.732Z,10.27
2022-08-23T15:38:50.960Z,10.27
2022-08-23T15:41:21.632Z,9.70
2022-08-23T15:43:49.784Z,10.13
2022-08-23T15:46:21.454Z,12.15
2022-08-23T15:48:54.284Z,13.55
2022-08-23T15:51:22.336Z,10.68
2022-08-23T15:53:52.236Z,9.02
2022-08-23T15:56:23.243Z,15.27
2022-08-23T15:58:53.581Z,12.27
2022-08-23T16:01:24.619Z,13.73
2022-08-23T16:03:53.282Z,10.77
2022-08-23T16:06:21.966Z,11.90
2022-08-23T16:08:53.961Z,9.40
2022-08-23T16:11:23.081Z,16.88
2022-08-23T16:13:55.173Z,10.77
2022-08-23T16:16:25.934Z,16.85
2022-08-23T16:18:54.933Z,11.23
2022-08-23T16:21:25.207Z,12.20
2022-08-23T16:23:55.392Z,11.48
2022-08-23T16:26:32.356Z,15.25
2022-08-23T16:29:05.693Z,11.77
2022-08-23T16:31:39.364Z,16.05
2022-08-23T16:34:10.037Z,11.07
2022-08-23T16:36:39.581Z,8.98
2022-08-23T16:39:10.250Z,14.60
2022-08-23T16:41:38.553Z,11.80
2022-08-23T16:44:07.481Z,15.15
2022-08-23T16:46:36.909Z,10.80
2022-08-23T16:49:05.308Z,17.63
2022-08-23T16:51:34.000Z,9.43
2022-08-23T16:54:03.191Z,11.23
2022-08-23T16:56:34.108Z,14.43
2022-08-23T16:59:03.213Z,11.55
2022-08-23T17:01:43.358Z,13.00
2022-08-23T17:04:12.596Z,10.40
2022-08-23T17:06:40.876Z,11.77
2022-08-23T17:09:08.928Z,8.10
2022-08-23T17:11:38.428Z,7.65
2022-08-23T17:14:06.427Z,11.85
2022-08-23T17:16:35.130Z,13.07
2022-08-23T17:19:03.308Z,9.20
2022-08-23T17:21:31.448Z,14.85
2022-08-23T17:23:59.513Z,14.93
2022-08-23T17:26:27.681Z,8.68
2022-08-23T17:28:57.518Z,10.75
2022-08-23T17:31:27.036Z,10.73
2022-08-23T17:33:55.440Z,11.43
2022-08-23T17:36:34.004Z,9.25
2022-08-23T17:39:05.195Z,8.40
2022-08-23T17:41:35.250Z,6.80
2022-08-23T17:44:05.304Z,8.63
2022-08-23T17:46:35.769Z,6.88
2022-08-23T17:49:03.963Z,7.03
2022-08-23T17:51:32.464Z,8.82
2022-08-23T17:54:00.587Z,8.65
2022-08-23T17:56:28.639Z,6.95
2022-08-23T17:58:56.961Z,7.40
2022-08-23T18:01:27.326Z,6.65
2022-08-23T18:03:55.417Z,6.38
2022-08-23T18:06:23.831Z,5.82
2022-08-23T18:08:51.807Z,8.98
2022-08-23T18:11:19.940Z,5.57
2022-08-23T18:13:48.584Z,4.00
2022-08-23T18:16:16.934Z,6.00
2022-08-23T18:18:46.361Z,4.75
2022-08-23T18:21:14.375Z,6.03
2022-08-23T18:23:42.970Z,6.22
2022-08-23T18:26:34.637Z,4.97
2022-08-23T18:29:01.656Z,5.00
2022-08-23T18:31:29.998Z,5.30
2022-08-23T18:34:00.602Z,7.60
2022-08-23T18:36:29.990Z,7.63
2022-08-23T18:38:58.278Z,7.65
2022-08-23T18:41:26.280Z,5.22
2022-08-23T18:43:54.655Z,8.70
2022-08-23T18:46:23.248Z,6.28
2022-08-23T18:48:53.735Z,9.00
2022-08-23T18:51:23.586Z,6.07
2022-08-23T18:53:52.667Z,5.78
2022-08-23T18:56:20.678Z,7.38
2022-08-23T18:58:48.910Z,8.27
2022-08-23T19:01:28.056Z,5.70
2022-08-23T19:03:59.421Z,8.75
2022-08-23T19:06:29.269Z,6.95
2022-08-23T19:08:57.351Z,6.07
2022-08-23T19:11:26.170Z,6.68
2022-08-23T19:13:54.590Z,5.28
2022-08-23T19:16:23.317Z,6.57
2022-08-23T19:18:52.374Z,5.22
2022-08-23T19:21:23.267Z,6.60
2022-08-23T19:23:55.433Z,7.13
2022-08-23T19:26:26.202Z,7.50
2022-08-23T19:28:55.189Z,5.80
2022-08-23T19:31:25.123Z,5.28
2022-08-23T19:33:53.268Z,5.00
2022-08-23T19:36:44.698Z,5.80
2022-08-23T19:39:11.238Z,12.77
2022-08-23T19:41:39.838Z,7.45
2022-08-23T19:44:08.822Z,5.43
2022-08-23T19:46:41.176Z,5.43
2022-08-23T19:49:11.632Z,10.02
2022-08-23T19:51:40.324Z,9.15
2022-08-23T19:54:12.403Z,6.65
2022-08-23T19:56:43.299Z,5.10
2022-08-23T19:59:14.796Z,5.63
2022-08-23T20:01:43.223Z,4.97
2022-08-23T20:04:12.688Z,5.85
2022-08-23T20:06:40.799Z,4.63
2022-08-23T20:09:11.294Z,4.75
2022-08-23T20:11:39.652Z,4.35
2022-08-23T20:14:10.014Z,5.53
2022-08-23T20:16:41.473Z,4.47
2022-08-23T20:19:10.338Z,4.50
2022-08-23T20:21:38.593Z,4.85
2022-08-23T20:24:06.937Z,5.30
2022-08-23T20:26:40.647Z,6.60
2022-08-23T20:29:11.153Z,7.93
2022-08-23T20:31:41.329Z,5.93
2022-08-23T20:34:10.382Z,8.43
2022-08-23T20:36:40.390Z,7.03
2022-08-23T20:39:08.748Z,6.60
2022-08-23T20:41:39.829Z,8.50
2022-08-23T20:44:09.617Z,6.75
2022-08-23T20:46:37.980Z,8.18
2022-08-23T20:49:06.822Z,5.60
2022-08-23T20:51:36.605Z,7.18
2022-08-23T20:54:05.291Z,6.18
2022-08-23T20:56:33.301Z,6.88
2022-08-23T20:59:02.961Z,5.10
2022-08-23T21:01:31.513Z,6.30
2022-08-23T21:04:00.143Z,7.32
2022-08-23T21:06:31.318Z,7.97
2022-08-23T21:09:01.313Z,5.22
2022-08-23T21:11:29.908Z,5.05
2022-08-23T21:13:58.693Z,7.03
2022-08-23T21:16:28.229Z,6.10
2022-08-23T21:18:56.888Z,8.95
2022-08-23T21:21:25.365Z,7.25
2022-08-23T21:23:54.052Z,5.80
2022-08-23T21:26:23.377Z,5.30
2022-08-23T21:28:51.784Z,6.97
2022-08-23T21:31:23.228Z,5.47
2022-08-23T21:33:53.507Z,6.53
2022-08-23T21:36:23.192Z,5.60
2022-08-23T21:38:52.550Z,7.63
2022-08-23T21:41:34.059Z,5.95
2022-08-23T21:44:03.196Z,4.63
2022-08-23T21:46:31.336Z,7.03
2022-08-23T21:49:01.683Z,6.60
2022-08-23T21:51:29.993Z,5.45
2022-08-23T21:53:58.481Z,6.32
2022-08-23T21:56:28.239Z,6.83
2022-08-23T21:58:59.200Z,5.88
2022-08-23T22:01:27.518Z,5.75
2022-08-23T22:03:57.169Z,6.25
2022-08-23T22:06:27.361Z,5.73
2022-08-23T22:08:55.681Z,4.97
2022-08-23T22:11:24.395Z,6.97
2022-08-23T22:13:53.820Z,5.88
2022-08-23T22:16:22.448Z,6.23
2022-08-23T22:18:53.840Z,5.90
2022-08-23T22:21:22.691Z,8.02
2022-08-23T22:23:52.745Z,5.57
2022-08-23T22:26:20.797Z,5.45
2022-08-23T22:28:48.864Z,6.07
2022-08-23T22:31:16.965Z,7.00
2022-08-23T22:33:46.254Z,7.97
2022-08-23T22:36:18.951Z,7.03
2022-08-23T22:38:47.979Z,6.30
2022-08-23T22:41:20.262Z,7.55
2022-08-23T22:43:48.567Z,6.07
2022-08-23T22:46:16.809Z,5.43
2022-08-23T22:48:44.959Z,7.23
2022-08-23T22:51:14.999Z,6.13
2022-08-23T22:53:46.338Z,6.25
2022-08-23T22:56:17.927Z,6.25
2022-08-23T22:58:47.172Z,7.27
2022-08-23T23:01:20.558Z,5.88
2022-08-23T23:03:49.630Z,8.00
2022-08-23T23:06:19.850Z,8.38
2022-08-23T23:08:47.871Z,9.30
2022-08-23T23:11:18.371Z,6.60
2022-08-23T23:13:46.791Z,7.37
2022-08-23T23:16:18.019Z,8.27
2022-08-23T23:19:08.056Z,7.87
2022-08-23T23:21:37.459Z,7.23
2022-08-23T23:24:06.406Z,9.47
2022-08-23T23:26:36.115Z,8.15
2022-08-23T23:29:04.754Z,7.20
2022-08-23T23:31:32.741Z,8.90
2022-08-23T23:34:00.738Z,8.20
2022-08-23T23:36:29.206Z,7.67
2022-08-23T23:38:57.558Z,6.97
2022-08-23T23:41:25.795Z,7.67
2022-08-23T23:43:55.106Z,9.57
2022-08-23T23:46:25.176Z,8.17
2022-08-23T23:48:54.025Z,9.48
2022-08-23T23:51:24.274Z,7.03
2022-08-23T23:53:53.035Z,8.73
2022-08-23T23:56:23.761Z,8.03
2022-08-23T23:58:54.771Z,8.53
